Flight Briefing for CPX793

Departure Arrival
Kingsford Smith International Airport (YSSY)
Click to view FAA NOTAMS
Auckland International Airport (NZAA)
Click to view FAA NOTAMS
Departure Time Arrival Time
N/A N/A
Aircraft Distance
B747-400BCF 1167nm
Departure METAR Arrival METAR
YSSY 190720Z 15012KT 8000 -SHRA FEW010 SCT022 FEW030TCU 22/19 Q1012 NZAA 190700Z AUTO 02005KT 9999 NCD 18/16 Q1022 NOSIG
Suggested Route
TESAT L521 LUNBI AA


View recent IFR Routes data
Notes



Charts and Procedures

Charts for YSSY
No chart available
Charts for NZAA
No chart available

Windy.com Weather Map